sensor_id;sensor_type;location;lat;lon;timestamp;P1;durP1;ratioP1;P2;durP2;ratioP2
51612;SDS011;37694;51.748;14.326;2022-12-10T00:01:06;8.52;;;5.07;;
51612;SDS011;37694;51.748;14.326;2022-12-10T00:03:36;6.65;;;4.90;;
51612;SDS011;37694;51.748;14.326;2022-12-10T00:06:03;7.40;;;5.25;;
51612;SDS011;37694;51.748;14.326;2022-12-10T00:08:30;9.57;;;5.18;;
51612;SDS011;37694;51.748;14.326;2022-12-10T00:10:56;5.38;;;4.88;;
51612;SDS011;37694;51.748;14.326;2022-12-10T00:13:22;5.07;;;4.57;;
51612;SDS011;37694;51.748;14.326;2022-12-10T00:15:48;6.03;;;4.72;;
51612;SDS011;37694;51.748;14.326;2022-12-10T00:18:13;5.50;;;4.93;;
51612;SDS011;37694;51.748;14.326;2022-12-10T00:20:39;6.78;;;5.40;;
51612;SDS011;37694;51.748;14.326;2022-12-10T00:23:05;5.82;;;5.22;;
51612;SDS011;37694;51.748;14.326;2022-12-10T00:25:34;6.03;;;5.38;;
51612;SDS011;37694;51.748;14.326;2022-12-10T00:27:59;5.20;;;4.70;;
51612;SDS011;37694;51.748;14.326;2022-12-10T00:30:25;5.50;;;5.00;;
51612;SDS011;37694;51.748;14.326;2022-12-10T00:32:51;6.10;;;5.50;;
51612;SDS011;37694;51.748;14.326;2022-12-10T00:35:16;5.80;;;5.22;;
51612;SDS011;37694;51.748;14.326;2022-12-10T00:37:42;6.93;;;5.15;;
51612;SDS011;37694;51.748;14.326;2022-12-10T00:40:08;9.20;;;5.53;;
51612;SDS011;37694;51.748;14.326;2022-12-10T00:42:35;6.88;;;4.65;;
51612;SDS011;37694;51.748;14.326;2022-12-10T00:45:01;10.40;;;5.10;;
51612;SDS011;37694;51.748;14.326;2022-12-10T00:47:28;7.07;;;5.20;;
51612;SDS011;37694;51.748;14.326;2022-12-10T00:49:53;5.47;;;4.95;;
51612;SDS011;37694;51.748;14.326;2022-12-10T00:52:19;7.63;;;5.55;;
51612;SDS011;37694;51.748;14.326;2022-12-10T00:54:44;7.43;;;5.50;;
51612;SDS011;37694;51.748;14.326;2022-12-10T00:57:10;5.63;;;5.13;;
51612;SDS011;37694;51.748;14.326;2022-12-10T00:59:36;5.45;;;4.90;;
51612;SDS011;37694;51.748;14.326;2022-12-10T01:02:02;5.18;;;4.72;;
51612;SDS011;37694;51.748;14.326;2022-12-10T01:04:27;8.32;;;4.95;;
51612;SDS011;37694;51.748;14.326;2022-12-10T01:06:53;5.70;;;5.15;;
51612;SDS011;37694;51.748;14.326;2022-12-10T01:09:20;5.35;;;4.85;;
51612;SDS011;37694;51.748;14.326;2022-12-10T01:11:51;5.72;;;5.07;;
51612;SDS011;37694;51.748;14.326;2022-12-10T01:14:19;6.15;;;5.30;;
51612;SDS011;37694;51.748;14.326;2022-12-10T01:16:53;6.18;;;5.00;;
51612;SDS011;37694;51.748;14.326;2022-12-10T01:19:20;6.07;;;5.28;;
51612;SDS011;37694;51.748;14.326;2022-12-10T01:21:49;6.22;;;5.15;;
51612;SDS011;37694;51.748;14.326;2022-12-10T01:24:16;5.20;;;4.70;;
51612;SDS011;37694;51.748;14.326;2022-12-10T01:26:41;8.90;;;5.65;;
51612;SDS011;37694;51.748;14.326;2022-12-10T01:29:07;6.82;;;5.55;;
51612;SDS011;37694;51.748;14.326;2022-12-10T01:31:36;9.13;;;5.20;;
51612;SDS011;37694;51.748;14.326;2022-12-10T01:34:03;5.53;;;4.70;;
51612;SDS011;37694;51.748;14.326;2022-12-10T01:36:37;5.55;;;4.63;;
51612;SDS011;37694;51.748;14.326;2022-12-10T01:39:07;6.97;;;5.05;;
51612;SDS011;37694;51.748;14.326;2022-12-10T01:46:34;4.85;;;4.35;;
51612;SDS011;37694;51.748;14.326;2022-12-10T01:49:01;6.20;;;5.15;;
51612;SDS011;37694;51.748;14.326;2022-12-10T01:51:30;5.45;;;4.90;;
51612;SDS011;37694;51.748;14.326;2022-12-10T01:53:58;5.68;;;5.10;;
51612;SDS011;37694;51.748;14.326;2022-12-10T01:56:24;6.78;;;5.07;;
51612;SDS011;37694;51.748;14.326;2022-12-10T01:58:50;5.50;;;4.95;;
51612;SDS011;37694;51.748;14.326;2022-12-10T02:07:07;5.53;;;4.82;;
51612;SDS011;37694;51.748;14.326;2022-12-10T02:09:46;7.00;;;5.50;;
51612;SDS011;37694;51.748;14.326;2022-12-10T02:15:33;6.35;;;4.80;;
51612;SDS011;37694;51.748;14.326;2022-12-10T02:18:07;5.78;;;5.18;;
51612;SDS011;37694;51.748;14.326;2022-12-10T02:20:42;6.40;;;4.45;;
51612;SDS011;37694;51.748;14.326;2022-12-10T02:23:24;5.38;;;4.88;;
51612;SDS011;37694;51.748;14.326;2022-12-10T02:26:06;5.57;;;4.70;;
51612;SDS011;37694;51.748;14.326;2022-12-10T02:28:51;7.80;;;4.80;;
51612;SDS011;37694;51.748;14.326;2022-12-10T02:31:37;5.65;;;4.88;;
51612;SDS011;37694;51.748;14.326;2022-12-10T02:34:07;9.55;;;4.22;;
51612;SDS011;37694;51.748;14.326;2022-12-10T02:36:37;7.82;;;4.85;;
51612;SDS011;37694;51.748;14.326;2022-12-10T02:39:07;6.07;;;5.05;;
51612;SDS011;37694;51.748;14.326;2022-12-10T02:41:40;4.53;;;4.07;;
51612;SDS011;37694;51.748;14.326;2022-12-10T02:44:11;7.13;;;5.43;;
51612;SDS011;37694;51.748;14.326;2022-12-10T02:46:39;8.45;;;5.00;;
51612;SDS011;37694;51.748;14.326;2022-12-10T02:49:07;5.78;;;4.88;;
51612;SDS011;37694;51.748;14.326;2022-12-10T02:51:34;5.38;;;4.88;;
51612;SDS011;37694;51.748;14.326;2022-12-10T02:54:00;7.78;;;4.60;;
51612;SDS011;37694;51.748;14.326;2022-12-10T02:59:20;6.93;;;4.97;;
51612;SDS011;37694;51.748;14.326;2022-12-10T03:02:17;5.35;;;4.85;;
51612;SDS011;37694;51.748;14.326;2022-12-10T03:05:21;5.30;;;4.80;;
51612;SDS011;37694;51.748;14.326;2022-12-10T03:10:41;5.95;;;5.20;;
51612;SDS011;37694;51.748;14.326;2022-12-10T03:13:19;6.35;;;4.70;;
51612;SDS011;37694;51.748;14.326;2022-12-10T03:15:48;5.85;;;5.25;;
51612;SDS011;37694;51.748;14.326;2022-12-10T03:18:17;5.22;;;4.70;;
51612;SDS011;37694;51.748;14.326;2022-12-10T03:20:47;5.57;;;4.82;;
51612;SDS011;37694;51.748;14.326;2022-12-10T03:23:15;5.43;;;4.90;;
51612;SDS011;37694;51.748;14.326;2022-12-10T03:25:43;5.57;;;5.07;;
51612;SDS011;37694;51.748;14.326;2022-12-10T03:28:11;5.25;;;4.80;;
51612;SDS011;37694;51.748;14.326;2022-12-10T03:30:38;5.47;;;4.85;;
51612;SDS011;37694;51.748;14.326;2022-12-10T03:33:06;5.55;;;4.28;;
51612;SDS011;37694;51.748;14.326;2022-12-10T03:35:32;6.20;;;5.28;;
51612;SDS011;37694;51.748;14.326;2022-12-10T03:37:58;6.78;;;5.05;;
51612;SDS011;37694;51.748;14.326;2022-12-10T03:40:24;6.68;;;5.15;;
51612;SDS011;37694;51.748;14.326;2022-12-10T03:42:50;5.88;;;4.93;;
51612;SDS011;37694;51.748;14.326;2022-12-10T03:45:16;6.47;;;4.78;;
51612;SDS011;37694;51.748;14.326;2022-12-10T03:47:42;7.07;;;5.30;;
51612;SDS011;37694;51.748;14.326;2022-12-10T03:50:08;5.82;;;5.25;;
51612;SDS011;37694;51.748;14.326;2022-12-10T03:52:34;7.32;;;4.97;;
51612;SDS011;37694;51.748;14.326;2022-12-10T03:55:00;7.18;;;5.55;;
51612;SDS011;37694;51.748;14.326;2022-12-10T03:57:27;6.90;;;4.95;;
51612;SDS011;37694;51.748;14.326;2022-12-10T03:59:53;5.55;;;4.97;;
51612;SDS011;37694;51.748;14.326;2022-12-10T04:02:18;5.47;;;4.93;;
51612;SDS011;37694;51.748;14.326;2022-12-10T04:04:44;5.82;;;5.22;;
51612;SDS011;37694;51.748;14.326;2022-12-10T04:07:10;6.35;;;4.90;;
51612;SDS011;37694;51.748;14.326;2022-12-10T04:09:36;9.10;;;4.60;;
51612;SDS011;37694;51.748;14.326;2022-12-10T04:12:01;6.70;;;5.13;;
51612;SDS011;37694;51.748;14.326;2022-12-10T04:14:27;6.20;;;5.20;;
51612;SDS011;37694;51.748;14.326;2022-12-10T04:17:12;5.47;;;4.97;;
51612;SDS011;37694;51.748;14.326;2022-12-10T04:19:38;5.82;;;4.95;;
51612;SDS011;37694;51.748;14.326;2022-12-10T04:22:03;5.28;;;4.63;;
51612;SDS011;37694;51.748;14.326;2022-12-10T04:24:48;5.00;;;4.50;;
51612;SDS011;37694;51.748;14.326;2022-12-10T04:27:33;5.40;;;4.78;;
51612;SDS011;37694;51.748;14.326;2022-12-10T04:30:02;5.20;;;4.75;;
51612;SDS011;37694;51.748;14.326;2022-12-10T04:32:29;5.82;;;5.22;;
51612;SDS011;37694;51.748;14.326;2022-12-10T04:34:55;8.65;;;4.93;;
51612;SDS011;37694;51.748;14.326;2022-12-10T04:37:21;5.13;;;4.63;;
51612;SDS011;37694;51.748;14.326;2022-12-10T04:39:48;5.97;;;4.60;;
51612;SDS011;37694;51.748;14.326;2022-12-10T04:42:15;7.57;;;5.15;;
51612;SDS011;37694;51.748;14.326;2022-12-10T04:44:41;4.68;;;4.00;;
51612;SDS011;37694;51.748;14.326;2022-12-10T04:47:07;8.57;;;5.55;;
51612;SDS011;37694;51.748;14.326;2022-12-10T04:49:34;5.13;;;4.63;;
51612;SDS011;37694;51.748;14.326;2022-12-10T04:52:01;5.75;;;5.22;;
51612;SDS011;37694;51.748;14.326;2022-12-10T04:54:26;5.20;;;4.70;;
51612;SDS011;37694;51.748;14.326;2022-12-10T04:56:53;5.72;;;4.70;;
51612;SDS011;37694;51.748;14.326;2022-12-10T04:59:18;8.52;;;5.18;;
51612;SDS011;37694;51.748;14.326;2022-12-10T05:01:44;6.28;;;4.40;;
51612;SDS011;37694;51.748;14.326;2022-12-10T05:04:11;7.35;;;4.47;;
51612;SDS011;37694;51.748;14.326;2022-12-10T05:06:38;5.15;;;4.50;;
51612;SDS011;37694;51.748;14.326;2022-12-10T05:09:04;4.68;;;4.07;;
51612;SDS011;37694;51.748;14.326;2022-12-10T05:11:31;4.82;;;4.40;;
51612;SDS011;37694;51.748;14.326;2022-12-10T05:13:57;5.50;;;5.00;;
51612;SDS011;37694;51.748;14.326;2022-12-10T05:16:25;4.47;;;4.07;;
51612;SDS011;37694;51.748;14.326;2022-12-10T05:18:53;4.45;;;4.05;;
51612;SDS011;37694;51.748;14.326;2022-12-10T05:21:20;5.22;;;4.47;;
51612;SDS011;37694;51.748;14.326;2022-12-10T05:23:48;6.10;;;4.75;;
51612;SDS011;37694;51.748;14.326;2022-12-10T05:26:19;4.85;;;4.35;;
51612;SDS011;37694;51.748;14.326;2022-12-10T05:28:51;5.65;;;4.63;;
51612;SDS011;37694;51.748;14.326;2022-12-10T05:31:23;5.38;;;4.55;;
51612;SDS011;37694;51.748;14.326;2022-12-10T05:33:51;4.28;;;3.92;;
51612;SDS011;37694;51.748;14.326;2022-12-10T05:36:19;6.35;;;4.63;;
51612;SDS011;37694;51.748;14.326;2022-12-10T05:38:47;5.63;;;4.40;;
51612;SDS011;37694;51.748;14.326;2022-12-10T05:41:15;5.10;;;4.47;;
51612;SDS011;37694;51.748;14.326;2022-12-10T05:43:53;5.13;;;4.15;;
51612;SDS011;37694;51.748;14.326;2022-12-10T05:46:21;4.93;;;4.40;;
51612;SDS011;37694;51.748;14.326;2022-12-10T05:48:51;5.72;;;4.15;;
51612;SDS011;37694;51.748;14.326;2022-12-10T05:51:19;4.90;;;4.30;;
51612;SDS011;37694;51.748;14.326;2022-12-10T05:53:53;4.22;;;3.83;;
51612;SDS011;37694;51.748;14.326;2022-12-10T05:56:20;5.20;;;4.70;;
51612;SDS011;37694;51.748;14.326;2022-12-10T05:58:48;7.45;;;4.32;;
51612;SDS011;37694;51.748;14.326;2022-12-10T06:01:15;4.75;;;4.13;;
51612;SDS011;37694;51.748;14.326;2022-12-10T06:03:43;4.88;;;4.38;;
51612;SDS011;37694;51.748;14.326;2022-12-10T06:06:09;4.85;;;4.28;;
51612;SDS011;37694;51.748;14.326;2022-12-10T06:08:36;5.13;;;4.63;;
51612;SDS011;37694;51.748;14.326;2022-12-10T06:11:02;5.07;;;4.32;;
51612;SDS011;37694;51.748;14.326;2022-12-10T06:13:35;5.28;;;4.30;;
51612;SDS011;37694;51.748;14.326;2022-12-10T06:16:06;5.28;;;4.78;;
51612;SDS011;37694;51.748;14.326;2022-12-10T06:18:33;4.00;;;3.65;;
51612;SDS011;37694;51.748;14.326;2022-12-10T06:20:59;6.22;;;5.13;;
51612;SDS011;37694;51.748;14.326;2022-12-10T06:23:28;4.70;;;4.20;;
51612;SDS011;37694;51.748;14.326;2022-12-10T06:25:54;7.20;;;4.13;;
51612;SDS011;37694;51.748;14.326;2022-12-10T06:28:19;4.82;;;4.32;;
51612;SDS011;37694;51.748;14.326;2022-12-10T06:30:45;4.60;;;4.22;;
51612;SDS011;37694;51.748;14.326;2022-12-10T06:33:11;5.15;;;4.63;;
51612;SDS011;37694;51.748;14.326;2022-12-10T06:35:37;5.30;;;4.55;;
51612;SDS011;37694;51.748;14.326;2022-12-10T06:38:02;5.38;;;4.88;;
51612;SDS011;37694;51.748;14.326;2022-12-10T06:40:28;6.32;;;4.53;;
51612;SDS011;37694;51.748;14.326;2022-12-10T06:42:54;3.85;;;3.50;;
51612;SDS011;37694;51.748;14.326;2022-12-10T06:45:19;5.18;;;4.13;;
51612;SDS011;37694;51.748;14.326;2022-12-10T06:47:45;5.80;;;4.07;;
51612;SDS011;37694;51.748;14.326;2022-12-10T06:50:11;4.85;;;4.20;;
51612;SDS011;37694;51.748;14.326;2022-12-10T06:52:36;4.10;;;3.70;;
51612;SDS011;37694;51.748;14.326;2022-12-10T06:55:02;7.72;;;4.28;;
51612;SDS011;37694;51.748;14.326;2022-12-10T06:57:28;8.57;;;4.32;;
51612;SDS011;37694;51.748;14.326;2022-12-10T06:59:53;4.57;;;4.18;;
51612;SDS011;37694;51.748;14.326;2022-12-10T07:02:19;6.50;;;3.80;;
51612;SDS011;37694;51.748;14.326;2022-12-10T07:04:45;6.32;;;4.10;;
51612;SDS011;37694;51.748;14.326;2022-12-10T07:07:11;7.03;;;4.53;;
51612;SDS011;37694;51.748;14.326;2022-12-10T07:09:37;19.08;;;4.32;;
51612;SDS011;37694;51.748;14.326;2022-12-10T07:12:03;3.95;;;3.20;;
51612;SDS011;37694;51.748;14.326;2022-12-10T07:14:29;4.68;;;3.65;;
51612;SDS011;37694;51.748;14.326;2022-12-10T07:16:54;5.18;;;2.90;;
51612;SDS011;37694;51.748;14.326;2022-12-10T07:19:20;5.05;;;2.83;;
51612;SDS011;37694;51.748;14.326;2022-12-10T07:21:46;3.50;;;3.15;;
51612;SDS011;37694;51.748;14.326;2022-12-10T07:24:13;6.80;;;3.03;;
51612;SDS011;37694;51.748;14.326;2022-12-10T07:26:42;3.03;;;2.75;;
51612;SDS011;37694;51.748;14.326;2022-12-10T07:29:12;5.22;;;2.78;;
51612;SDS011;37694;51.748;14.326;2022-12-10T07:31:39;3.35;;;2.88;;
51612;SDS011;37694;51.748;14.326;2022-12-10T07:34:05;5.05;;;2.90;;
51612;SDS011;37694;51.748;14.326;2022-12-10T07:36:32;2.55;;;2.35;;
51612;SDS011;37694;51.748;14.326;2022-12-10T07:38:57;3.35;;;2.60;;
51612;SDS011;37694;51.748;14.326;2022-12-10T07:41:23;2.33;;;2.13;;
51612;SDS011;37694;51.748;14.326;2022-12-10T07:43:50;2.90;;;2.70;;
51612;SDS011;37694;51.748;14.326;2022-12-10T07:46:24;5.43;;;2.30;;
51612;SDS011;37694;51.748;14.326;2022-12-10T07:48:54;3.30;;;2.13;;
51612;SDS011;37694;51.748;14.326;2022-12-10T07:51:21;3.65;;;2.35;;
51612;SDS011;37694;51.748;14.326;2022-12-10T07:53:47;4.70;;;2.22;;
51612;SDS011;37694;51.748;14.326;2022-12-10T07:56:15;3.15;;;1.80;;
51612;SDS011;37694;51.748;14.326;2022-12-10T07:58:42;5.80;;;2.50;;
51612;SDS011;37694;51.748;14.326;2022-12-10T08:01:09;2.15;;;2.00;;
51612;SDS011;37694;51.748;14.326;2022-12-10T08:03:37;5.07;;;2.28;;
51612;SDS011;37694;51.748;14.326;2022-12-10T08:06:04;7.65;;;1.85;;
51612;SDS011;37694;51.748;14.326;2022-12-10T08:08:34;2.05;;;1.95;;
51612;SDS011;37694;51.748;14.326;2022-12-10T08:11:02;2.50;;;2.30;;
51612;SDS011;37694;51.748;14.326;2022-12-10T08:13:28;2.38;;;2.08;;
51612;SDS011;37694;51.748;14.326;2022-12-10T08:15:59;3.25;;;2.15;;
51612;SDS011;37694;51.748;14.326;2022-12-10T08:18:33;8.57;;;2.38;;
51612;SDS011;37694;51.748;14.326;2022-12-10T08:21:03;9.52;;;2.42;;
51612;SDS011;37694;51.748;14.326;2022-12-10T08:23:30;2.53;;;2.10;;
51612;SDS011;37694;51.748;14.326;2022-12-10T08:25:55;9.50;;;2.78;;
51612;SDS011;37694;51.748;14.326;2022-12-10T08:28:21;3.97;;;2.75;;
51612;SDS011;37694;51.748;14.326;2022-12-10T08:30:47;2.55;;;2.35;;
51612;SDS011;37694;51.748;14.326;2022-12-10T08:33:13;7.22;;;2.83;;
51612;SDS011;37694;51.748;14.326;2022-12-10T08:35:39;11.60;;;3.22;;
51612;SDS011;37694;51.748;14.326;2022-12-10T08:38:05;8.98;;;3.50;;
51612;SDS011;37694;51.748;14.326;2022-12-10T08:40:30;8.80;;;4.53;;
51612;SDS011;37694;51.748;14.326;2022-12-10T08:42:56;17.42;;;5.50;;
51612;SDS011;37694;51.748;14.326;2022-12-10T08:45:22;9.82;;;5.22;;
51612;SDS011;37694;51.748;14.326;2022-12-10T08:47:47;21.77;;;4.95;;
51612;SDS011;37694;51.748;14.326;2022-12-10T08:50:13;15.30;;;5.90;;
51612;SDS011;37694;51.748;14.326;2022-12-10T08:52:38;14.02;;;5.28;;
51612;SDS011;37694;51.748;14.326;2022-12-10T08:55:04;17.05;;;5.07;;
51612;SDS011;37694;51.748;14.326;2022-12-10T08:57:30;15.20;;;4.88;;
51612;SDS011;37694;51.748;14.326;2022-12-10T08:59:56;15.02;;;5.38;;
51612;SDS011;37694;51.748;14.326;2022-12-10T09:02:21;13.43;;;5.20;;
51612;SDS011;37694;51.748;14.326;2022-12-10T09:04:47;13.68;;;4.72;;
51612;SDS011;37694;51.748;14.326;2022-12-10T09:07:15;9.80;;;5.05;;
51612;SDS011;37694;51.748;14.326;2022-12-10T09:09:41;14.95;;;5.47;;
51612;SDS011;37694;51.748;14.326;2022-12-10T09:12:06;10.40;;;4.43;;
51612;SDS011;37694;51.748;14.326;2022-12-10T09:14:32;10.93;;;5.18;;
51612;SDS011;37694;51.748;14.326;2022-12-10T09:16:58;14.63;;;5.70;;
51612;SDS011;37694;51.748;14.326;2022-12-10T09:19:23;17.33;;;5.82;;
51612;SDS011;37694;51.748;14.326;2022-12-10T09:21:49;20.92;;;8.30;;
51612;SDS011;37694;51.748;14.326;2022-12-10T09:24:15;39.92;;;17.67;;
51612;SDS011;37694;51.748;14.326;2022-12-10T09:26:40;44.72;;;16.35;;
51612;SDS011;37694;51.748;14.326;2022-12-10T09:29:06;34.15;;;12.23;;
51612;SDS011;37694;51.748;14.326;2022-12-10T09:31:31;29.08;;;11.23;;
51612;SDS011;37694;51.748;14.326;2022-12-10T09:33:57;24.05;;;10.35;;
51612;SDS011;37694;51.748;14.326;2022-12-10T09:36:23;21.25;;;10.32;;
51612;SDS011;37694;51.748;14.326;2022-12-10T09:38:49;18.25;;;9.13;;
51612;SDS011;37694;51.748;14.326;2022-12-10T09:49:02;16.10;;;6.63;;
51612;SDS011;37694;51.748;14.326;2022-12-10T09:51:37;27.48;;;6.60;;
51612;SDS011;37694;51.748;14.326;2022-12-10T09:54:04;13.80;;;5.70;;
51612;SDS011;37694;51.748;14.326;2022-12-10T09:56:47;7.10;;;4.45;;
51612;SDS011;37694;51.748;14.326;2022-12-10T09:59:19;10.88;;;4.32;;
51612;SDS011;37694;51.748;14.326;2022-12-10T10:04:16;11.90;;;4.30;;
51612;SDS011;37694;51.748;14.326;2022-12-10T10:06:41;10.65;;;4.00;;
51612;SDS011;37694;51.748;14.326;2022-12-10T10:09:09;8.13;;;3.50;;
51612;SDS011;37694;51.748;14.326;2022-12-10T10:11:39;10.32;;;3.55;;
51612;SDS011;37694;51.748;14.326;2022-12-10T10:14:17;12.45;;;3.85;;
51612;SDS011;37694;51.748;14.326;2022-12-10T10:16:55;9.75;;;3.67;;
51612;SDS011;37694;51.748;14.326;2022-12-10T10:19:33;8.65;;;3.28;;
51612;SDS011;37694;51.748;14.326;2022-12-10T10:22:00;7.22;;;3.05;;
51612;SDS011;37694;51.748;14.326;2022-12-10T10:24:28;8.63;;;3.17;;
51612;SDS011;37694;51.748;14.326;2022-12-10T10:27:01;8.15;;;2.83;;
51612;SDS011;37694;51.748;14.326;2022-12-10T10:29:49;4.30;;;2.50;;
51612;SDS011;37694;51.748;14.326;2022-12-10T10:32:18;6.28;;;2.92;;
51612;SDS011;37694;51.748;14.326;2022-12-10T10:34:44;5.70;;;2.58;;
51612;SDS011;37694;51.748;14.326;2022-12-10T10:37:21;11.20;;;3.05;;
51612;SDS011;37694;51.748;14.326;2022-12-10T10:39:53;3.92;;;2.45;;
51612;SDS011;37694;51.748;14.326;2022-12-10T10:44:57;3.95;;;2.17;;
51612;SDS011;37694;51.748;14.326;2022-12-10T10:47:28;15.75;;;2.80;;
51612;SDS011;37694;51.748;14.326;2022-12-10T10:49:55;11.57;;;3.13;;
51612;SDS011;37694;51.748;14.326;2022-12-10T10:52:21;3.58;;;2.55;;
51612;SDS011;37694;51.748;14.326;2022-12-10T10:54:48;8.27;;;2.30;;
51612;SDS011;37694;51.748;14.326;2022-12-10T10:57:24;10.18;;;2.58;;
51612;SDS011;37694;51.748;14.326;2022-12-10T10:59:54;6.70;;;2.80;;
51612;SDS011;37694;51.748;14.326;2022-12-10T11:05:17;8.73;;;2.70;;
51612;SDS011;37694;51.748;14.326;2022-12-10T11:08:05;18.00;;;3.38;;
51612;SDS011;37694;51.748;14.326;2022-12-10T11:10:38;10.82;;;3.08;;
51612;SDS011;37694;51.748;14.326;2022-12-10T11:13:22;31.48;;;4.18;;
51612;SDS011;37694;51.748;14.326;2022-12-10T11:16:36;27.35;;;3.88;;
51612;SDS011;37694;51.748;14.326;2022-12-10T11:18:58;20.52;;;3.95;;
51612;SDS011;37694;51.748;14.326;2022-12-10T11:21:28;25.83;;;4.65;;
51612;SDS011;37694;51.748;14.326;2022-12-10T11:23:56;26.10;;;4.20;;
51612;SDS011;37694;51.748;14.326;2022-12-10T11:26:36;23.88;;;3.92;;
51612;SDS011;37694;51.748;14.326;2022-12-10T11:35:14;15.65;;;4.55;;
51612;SDS011;37694;51.748;14.326;2022-12-10T11:40:54;9.90;;;4.13;;
51612;SDS011;37694;51.748;14.326;2022-12-10T12:00:19;10.32;;;4.55;;
51612;SDS011;37694;51.748;14.326;2022-12-10T12:21:16;11.85;;;4.43;;
51612;SDS011;37694;51.748;14.326;2022-12-10T12:23:45;7.60;;;3.65;;
51612;SDS011;37694;51.748;14.326;2022-12-10T12:26:24;5.40;;;4.22;;
51612;SDS011;37694;51.748;14.326;2022-12-10T12:29:00;7.53;;;4.18;;
51612;SDS011;37694;51.748;14.326;2022-12-10T12:31:54;12.25;;;4.40;;
51612;SDS011;37694;51.748;14.326;2022-12-10T12:34:46;8.30;;;4.53;;
51612;SDS011;37694;51.748;14.326;2022-12-10T12:37:17;8.80;;;4.35;;
51612;SDS011;37694;51.748;14.326;2022-12-10T12:50:53;6.38;;;4.35;;
51612;SDS011;37694;51.748;14.326;2022-12-10T12:53:21;5.63;;;4.30;;
51612;SDS011;37694;51.748;14.326;2022-12-10T13:03:41;13.77;;;5.53;;
51612;SDS011;37694;51.748;14.326;2022-12-10T13:06:22;9.45;;;4.65;;
51612;SDS011;37694;51.748;14.326;2022-12-10T13:08:52;8.32;;;5.50;;
51612;SDS011;37694;51.748;14.326;2022-12-10T13:11:44;8.95;;;5.15;;
51612;SDS011;37694;51.748;14.326;2022-12-10T13:14:28;7.97;;;5.10;;
51612;SDS011;37694;51.748;14.326;2022-12-10T13:17:33;7.30;;;4.47;;
51612;SDS011;37694;51.748;14.326;2022-12-10T13:39:10;5.95;;;4.93;;
51612;SDS011;37694;51.748;14.326;2022-12-10T14:06:21;11.27;;;5.78;;
51612;SDS011;37694;51.748;14.326;2022-12-10T14:11:58;9.90;;;5.38;;
51612;SDS011;37694;51.748;14.326;2022-12-10T14:14:32;18.25;;;5.75;;
51612;SDS011;37694;51.748;14.326;2022-12-10T14:17:14;10.50;;;4.93;;
51612;SDS011;37694;51.748;14.326;2022-12-10T14:19:43;7.93;;;5.35;;
51612;SDS011;37694;51.748;14.326;2022-12-10T14:22:23;13.07;;;4.88;;
51612;SDS011;37694;51.748;14.326;2022-12-10T14:25:06;14.75;;;5.65;;
51612;SDS011;37694;51.748;14.326;2022-12-10T14:27:43;11.10;;;6.32;;
51612;SDS011;37694;51.748;14.326;2022-12-10T14:30:22;9.73;;;8.02;;
51612;SDS011;37694;51.748;14.326;2022-12-10T14:32:52;13.82;;;8.82;;
51612;SDS011;37694;51.748;14.326;2022-12-10T14:35:21;11.68;;;8.88;;
51612;SDS011;37694;51.748;14.326;2022-12-10T14:37:49;16.00;;;9.52;;
51612;SDS011;37694;51.748;14.326;2022-12-10T14:42:49;7.30;;;6.57;;
51612;SDS011;37694;51.748;14.326;2022-12-10T14:45:20;7.40;;;6.00;;
51612;SDS011;37694;51.748;14.326;2022-12-10T14:47:46;12.30;;;5.43;;
51612;SDS011;37694;51.748;14.326;2022-12-10T14:50:14;7.43;;;4.97;;
51612;SDS011;37694;51.748;14.326;2022-12-10T14:52:42;5.13;;;4.60;;
51612;SDS011;37694;51.748;14.326;2022-12-10T14:55:14;6.38;;;4.25;;
51612;SDS011;37694;51.748;14.326;2022-12-10T14:57:45;5.35;;;4.25;;
51612;SDS011;37694;51.748;14.326;2022-12-10T15:00:17;4.78;;;3.58;;
51612;SDS011;37694;51.748;14.326;2022-12-10T15:02:44;4.82;;;4.00;;
51612;SDS011;37694;51.748;14.326;2022-12-10T15:05:37;6.78;;;3.35;;
51612;SDS011;37694;51.748;14.326;2022-12-10T15:08:04;5.85;;;3.47;;
51612;SDS011;37694;51.748;14.326;2022-12-10T15:10:35;3.58;;;3.08;;
51612;SDS011;37694;51.748;14.326;2022-12-10T15:13:03;6.53;;;3.05;;
51612;SDS011;37694;51.748;14.326;2022-12-10T15:18:43;4.68;;;3.42;;
51612;SDS011;37694;51.748;14.326;2022-12-10T15:20:53;8.48;;;2.38;;
51612;SDS011;37694;51.748;14.326;2022-12-10T15:28:30;2.13;;;1.98;;
51612;SDS011;37694;51.748;14.326;2022-12-10T15:33:54;8.20;;;2.22;;
51612;SDS011;37694;51.748;14.326;2022-12-10T15:36:28;4.28;;;1.70;;
51612;SDS011;37694;51.748;14.326;2022-12-10T15:41:41;2.58;;;1.73;;
51612;SDS011;37694;51.748;14.326;2022-12-10T15:45:00;2.45;;;2.03;;
51612;SDS011;37694;51.748;14.326;2022-12-10T15:47:23;1.85;;;1.75;;
51612;SDS011;37694;51.748;14.326;2022-12-10T15:49:51;3.10;;;1.65;;
51612;SDS011;37694;51.748;14.326;2022-12-10T15:52:22;2.55;;;1.48;;
51612;SDS011;37694;51.748;14.326;2022-12-10T15:54:54;3.88;;;1.42;;
51612;SDS011;37694;51.748;14.326;2022-12-10T15:59:53;5.85;;;1.45;;
51612;SDS011;37694;51.748;14.326;2022-12-10T16:04:50;1.80;;;1.30;;
51612;SDS011;37694;51.748;14.326;2022-12-10T16:07:16;1.55;;;0.98;;
51612;SDS011;37694;51.748;14.326;2022-12-10T16:09:42;2.75;;;1.10;;
51612;SDS011;37694;51.748;14.326;2022-12-10T16:12:09;2.63;;;1.30;;
51612;SDS011;37694;51.748;14.326;2022-12-10T16:14:37;1.45;;;1.17;;
51612;SDS011;37694;51.748;14.326;2022-12-10T16:17:03;1.02;;;1.00;;
51612;SDS011;37694;51.748;14.326;2022-12-10T16:19:29;3.10;;;1.42;;
51612;SDS011;37694;51.748;14.326;2022-12-10T16:21:54;2.15;;;1.17;;
51612;SDS011;37694;51.748;14.326;2022-12-10T16:24:20;3.92;;;1.48;;
51612;SDS011;37694;51.748;14.326;2022-12-10T16:26:45;3.88;;;1.52;;
51612;SDS011;37694;51.748;14.326;2022-12-10T16:29:11;5.80;;;1.10;;
51612;SDS011;37694;51.748;14.326;2022-12-10T16:31:37;4.07;;;1.20;;
51612;SDS011;37694;51.748;14.326;2022-12-10T16:34:02;24.58;;;1.80;;
51612;SDS011;37694;51.748;14.326;2022-12-10T16:36:28;6.93;;;1.17;;
51612;SDS011;37694;51.748;14.326;2022-12-10T16:38:54;4.85;;;1.58;;
51612;SDS011;37694;51.748;14.326;2022-12-10T16:41:23;1.50;;;1.40;;
51612;SDS011;37694;51.748;14.326;2022-12-10T16:43:49;4.07;;;1.65;;
51612;SDS011;37694;51.748;14.326;2022-12-10T16:46:15;4.00;;;1.60;;
51612;SDS011;37694;51.748;14.326;2022-12-10T16:48:41;1.45;;;1.17;;
51612;SDS011;37694;51.748;14.326;2022-12-10T16:53:54;2.42;;;1.40;;
51612;SDS011;37694;51.748;14.326;2022-12-10T16:56:21;2.58;;;1.48;;
51612;SDS011;37694;51.748;14.326;2022-12-10T16:58:47;6.38;;;1.50;;
51612;SDS011;37694;51.748;14.326;2022-12-10T17:01:20;3.53;;;1.40;;
51612;SDS011;37694;51.748;14.326;2022-12-10T17:03:48;8.48;;;2.15;;
51612;SDS011;37694;51.748;14.326;2022-12-10T17:06:14;9.27;;;1.80;;
51612;SDS011;37694;51.748;14.326;2022-12-10T17:08:40;6.82;;;1.70;;
51612;SDS011;37694;51.748;14.326;2022-12-10T17:11:49;11.20;;;2.05;;
51612;SDS011;37694;51.748;14.326;2022-12-10T17:14:23;10.80;;;2.05;;
51612;SDS011;37694;51.748;14.326;2022-12-10T17:16:51;12.70;;;2.15;;
51612;SDS011;37694;51.748;14.326;2022-12-10T17:19:18;3.72;;;1.67;;
51612;SDS011;37694;51.748;14.326;2022-12-10T17:21:44;7.35;;;2.10;;
51612;SDS011;37694;51.748;14.326;2022-12-10T17:24:10;7.43;;;2.45;;
51612;SDS011;37694;51.748;14.326;2022-12-10T17:26:38;10.55;;;2.40;;
51612;SDS011;37694;51.748;14.326;2022-12-10T17:29:25;17.05;;;2.55;;
51612;SDS011;37694;51.748;14.326;2022-12-10T17:31:53;16.20;;;2.55;;
51612;SDS011;37694;51.748;14.326;2022-12-10T17:34:19;10.07;;;2.30;;